Time;durP1;ratioP1;P1;durP2;ratioP2;P2;SDS_P1;SDS_P2;PMS_P1;PMS_P2;Temp;Humidity;BMP_temperature;BMP_pressure;BME280_temperature;BME280_humidity;BME280_pressure;Samples;Min_cycle;Max_cycle;Signal;HPM_P1;HPM_P2
2021/06/02 04:02:03;;;;;;;5.13;4.63;;;12.70;99.90;;;;;;5286750;22;20489;-62
2021/06/02 04:04:35;;;;;;;4.90;4.40;;;12.70;99.90;;;;;;4997597;28;20797;-62
2021/06/02 04:07:06;;;;;;;5.33;4.93;;;12.70;99.90;;;;;;4997701;28;20497;-64
2021/06/02 04:09:41;;;;;;;7.23;5.70;;;12.60;99.90;;;;;;4997198;28;21024;-62
2021/06/02 04:12:19;;;;;;;7.00;5.40;;;12.60;99.90;;;;;;4997646;28;20488;-62
2021/06/02 04:14:54;;;;;;;5.37;4.97;;;12.60;99.90;;;;;;4997385;28;20445;-63
2021/06/02 04:17:23;;;;;;;5.90;5.40;;;12.50;99.90;;;;;;4998062;28;20473;-63
2021/06/02 04:19:50;;;;;;;5.60;5.20;;;12.50;99.90;;;;;;4997034;28;20453;-63
2021/06/02 04:22:20;;;;;;;5.60;5.10;;;12.50;99.90;;;;;;4997308;28;20478;-63
2021/06/02 04:24:48;;;;;;;6.60;6.10;;;12.60;99.90;;;;;;4997193;28;20544;-63
2021/06/02 04:27:16;;;;;;;7.93;6.03;;;12.60;99.90;;;;;;4997097;28;20454;-64
2021/06/02 04:29:45;;;;;;;11.60;6.43;;;12.60;99.90;;;;;;4996733;28;20963;-61
2021/06/02 04:32:11;;;;;;;7.30;6.60;;;12.60;99.90;;;;;;4996873;28;20564;-63
2021/06/02 04:34:38;;;;;;;9.47;5.90;;;12.80;99.90;;;;;;4996482;28;20454;-62
2021/06/02 04:37:06;;;;;;;6.57;6.03;;;12.80;99.90;;;;;;4996696;28;20454;-62
2021/06/02 04:39:36;;;;;;;7.07;6.47;;;12.80;99.90;;;;;;4996658;28;20464;-63
2021/06/02 04:42:05;;;;;;;7.10;6.40;;;12.90;99.90;;;;;;4998220;28;20485;-62
2021/06/02 04:44:33;;;;;;;7.13;6.43;;;12.90;99.90;;;;;;5004747;28;20526;-62
2021/06/02 04:47:01;;;;;;;8.00;7.30;;;12.90;99.90;;;;;;5000774;28;20512;-62
2021/06/02 04:49:38;;;;;;;7.67;7.07;;;12.80;99.90;;;;;;4996554;28;20458;-63
2021/06/02 04:53:03;;;;;;;10.17;7.17;;;12.90;99.90;;;;;;4996649;28;20484;-62
2021/06/02 04:55:51;;;;;;;8.57;7.80;;;12.90;99.90;;;;;;4996788;28;20792;-63
2021/06/02 04:58:50;;;;;;;10.53;7.13;;;12.90;99.90;;;;;;4996769;28;20456;-62
2021/06/02 05:01:44;;;;;;;8.40;7.53;;;12.90;99.90;;;;;;4999242;28;20513;-63
2021/06/02 05:05:07;;;;;;;8.97;8.17;;;13.00;99.90;;;;;;4996154;28;20438;-62
2021/06/02 05:08:21;;;;;;;10.20;8.80;;;13.00;99.90;;;;;;4955019;29;20448;-62
2021/06/02 05:14:54;;;;;;;8.90;8.00;;;13.20;99.90;;;;;;5091951;27;20873;-62
2021/06/02 05:18:08;;;;;;;10.60;9.60;;;13.20;99.90;;;;;;5090934;28;20490;-63
2021/06/02 05:24:39;;;;;;;10.23;9.23;;;13.30;99.90;;;;;;5092620;28;20406;-62
2021/06/02 05:27:35;;;;;;;9.67;8.77;;;13.40;99.90;;;;;;5091140;28;20502;-62
2021/06/02 05:30:41;;;;;;;10.03;9.00;;;13.40;99.90;;;;;;5090806;28;20445;-62
2021/06/02 05:33:44;;;;;;;13.33;8.50;;;13.60;99.90;;;;;;5090946;28;20481;-62
2021/06/02 05:36:52;;;;;;;9.40;7.67;;;13.70;99.90;;;;;;5091081;28;20452;-62
2021/06/02 05:39:52;;;;;;;9.20;8.37;;;13.80;99.90;;;;;;5090606;28;20453;-62
2021/06/02 05:42:22;;;;;;;9.43;8.53;;;14.00;99.90;;;;;;5090594;28;20465;-62
2021/06/02 05:45:36;;;;;;;8.40;7.50;;;14.20;99.90;;;;;;5090750;28;20454;-62
2021/06/02 05:48:35;;;;;;;8.23;7.33;;;14.40;99.90;;;;;;5090685;28;20488;-62
2021/06/02 05:51:38;;;;;;;10.80;8.63;;;14.60;99.90;;;;;;5090618;28;20476;-62
2021/06/02 05:54:49;;;;;;;8.20;7.50;;;15.00;99.90;;;;;;5077602;28;20473;-62
2021/06/02 05:57:44;;;;;;;8.67;7.90;;;15.20;99.90;;;;;;5054361;28;20445;-62
2021/06/02 06:00:52;;;;;;;8.20;7.00;;;15.40;99.90;;;;;;5090215;28;20441;-62
2021/06/02 06:03:46;;;;;;;7.53;6.83;;;15.50;99.90;;;;;;5069709;28;20469;-62
2021/06/02 06:06:22;;;;;;;7.60;7.00;;;15.70;99.90;;;;;;5090167;28;20923;-62
2021/06/02 06:09:36;;;;;;;8.93;7.47;;;15.80;99.90;;;;;;5090670;28;20449;-62
2021/06/02 06:12:48;;;;;;;9.80;6.77;;;16.00;99.90;;;;;;5090097;28;20622;-62
2021/06/02 06:15:29;;;;;;;6.73;6.13;;;16.40;99.90;;;;;;5090553;28;20434;-62
2021/06/02 06:18:24;;;;;;;6.67;5.70;;;16.80;99.90;;;;;;5090477;28;20445;-62
2021/06/02 06:21:27;;;;;;;6.40;5.90;;;17.30;99.90;;;;;;5088573;28;20484;-62
2021/06/02 06:23:56;;;;;;;8.50;6.50;;;17.70;99.90;;;;;;5075490;28;20450;-63
2021/06/02 06:26:26;;;;;;;8.17;6.60;;;18.00;99.90;;;;;;5076975;28;20457;-63
2021/06/02 06:29:01;;;;;;;7.17;6.57;;;18.10;99.90;;;;;;5077014;28;20600;-62
2021/06/02 06:31:31;;;;;;;7.60;7.00;;;18.40;99.90;;;;;;5076575;28;20472;-61
2021/06/02 06:34:04;;;;;;;7.80;6.40;;;18.60;99.90;;;;;;5076625;28;20477;-63
2021/06/02 06:36:34;;;;;;;11.93;6.37;;;18.80;99.90;;;;;;5076183;28;20438;-63
2021/06/02 06:39:15;;;;;;;8.80;6.43;;;18.70;99.90;;;;;;5076394;28;20504;-63
2021/06/02 06:41:43;;;;;;;10.30;6.20;;;18.80;99.90;;;;;;5075960;28;20998;-63
2021/06/02 06:44:11;;;;;;;6.53;5.93;;;19.20;99.60;;;;;;5076828;28;20504;-63
2021/06/02 06:46:39;;;;;;;6.20;5.17;;;19.50;99.30;;;;;;5076402;28;20454;-63
2021/06/02 06:49:07;;;;;;;7.53;5.47;;;19.80;96.60;;;;;;5076194;28;20434;-63
2021/06/02 06:51:35;;;;;;;6.03;5.43;;;20.10;96.30;;;;;;5076050;28;21041;-63
2021/06/02 06:54:02;;;;;;;6.73;5.67;;;20.60;94.50;;;;;;5087848;28;20477;-63
2021/06/02 06:56:30;;;;;;;5.60;5.10;;;21.00;92.50;;;;;;5078556;28;20509;-63
2021/06/02 06:58:58;;;;;;;6.20;5.50;;;21.60;90.70;;;;;;5076866;28;20454;-62
2021/06/02 07:01:25;;;;;;;6.70;4.90;;;22.30;89.30;;;;;;5076689;28;20483;-64
2021/06/02 07:03:52;;;;;;;7.07;4.33;;;23.00;85.00;;;;;;5075876;28;20451;-63
2021/06/02 07:06:19;;;;;;;9.70;5.27;;;23.40;82.90;;;;;;5076215;28;20516;-62
2021/06/02 07:08:48;;;;;;;8.20;5.30;;;24.20;80.80;;;;;;5075927;28;20952;-63
2021/06/02 07:11:17;;;;;;;5.23;3.90;;;24.10;78.00;;;;;;5076010;28;20504;-62
2021/06/02 07:13:46;;;;;;;4.40;4.10;;;24.50;75.20;;;;;;5075420;28;20505;-63
2021/06/02 07:16:14;;;;;;;6.57;3.97;;;24.70;70.70;;;;;;5075670;28;20465;-62
2021/06/02 07:18:44;;;;;;;3.80;3.50;;;25.20;71.00;;;;;;5078026;28;20458;-63
2021/06/02 07:21:11;;;;;;;3.90;3.50;;;25.70;68.20;;;;;;5076110;28;20470;-63
2021/06/02 07:23:38;;;;;;;4.53;3.63;;;25.70;68.30;;;;;;5076189;28;20457;-62
2021/06/02 07:26:06;;;;;;;3.60;3.30;;;25.80;67.10;;;;;;5075991;28;20457;-62
2021/06/02 07:28:36;;;;;;;4.33;3.93;;;26.70;66.30;;;;;;5075657;28;20499;-62
2021/06/02 07:31:03;;;;;;;7.30;3.60;;;27.10;62.50;;;;;;5075184;28;21015;-62
2021/06/02 07:33:29;;;;;;;4.60;3.63;;;27.70;62.10;;;;;;5076550;28;20808;-62
2021/06/02 07:35:55;;;;;;;3.60;3.40;;;28.30;58.00;;;;;;5074801;28;20450;-62
2021/06/02 07:38:22;;;;;;;4.80;3.90;;;28.60;57.60;;;;;;5075843;28;20511;-62
2021/06/02 07:40:48;;;;;;;3.70;3.20;;;28.40;56.40;;;;;;5075387;28;20470;-62
2021/06/02 07:43:15;;;;;;;6.13;3.03;;;28.50;56.50;;;;;;5075062;28;20780;-62
2021/06/02 07:45:42;;;;;;;4.20;3.80;;;29.00;55.20;;;;;;5075515;28;20461;-62
2021/06/02 07:48:08;;;;;;;4.67;4.00;;;29.30;55.60;;;;;;5075320;28;20454;-62
2021/06/02 07:50:35;;;;;;;5.87;3.30;;;29.40;54.60;;;;;;5075320;28;20523;-62
2021/06/02 07:53:01;;;;;;;4.00;3.77;;;29.00;54.40;;;;;;5075395;28;20827;-62
2021/06/02 07:55:27;;;;;;;4.67;4.17;;;28.90;54.80;;;;;;5074975;28;20450;-62
2021/06/02 07:57:53;;;;;;;6.37;4.40;;;29.20;55.30;;;;;;5074894;28;20451;-62
2021/06/02 08:00:21;;;;;;;6.73;4.40;;;29.50;52.00;;;;;;5074919;28;20454;-62
2021/06/02 08:02:48;;;;;;;5.00;4.30;;;29.30;52.50;;;;;;5075306;28;20451;-62
2021/06/02 08:05:15;;;;;;;4.00;3.50;;;29.50;54.30;;;;;;5075546;28;20454;-64
2021/06/02 08:07:42;;;;;;;4.20;3.90;;;29.90;52.00;;;;;;5076445;28;20511;-67
2021/06/02 08:10:09;;;;;;;3.13;2.93;;;29.80;50.10;;;;;;5076590;28;20461;-65
2021/06/02 08:12:36;;;;;;;3.90;3.60;;;30.20;49.40;;;;;;5075018;28;20482;-65
2021/06/02 08:15:02;;;;;;;4.77;3.90;;;29.40;53.40;;;;;;5075516;28;20454;-62
2021/06/02 08:17:30;;;;;;;3.93;3.20;;;30.10;49.40;;;;;;5075782;28;20461;-62
2021/06/02 08:19:56;;;;;;;4.50;4.10;;;30.20;51.20;;;;;;5076030;28;20457;-62
2021/06/02 08:22:22;;;;;;;3.63;3.17;;;29.60;51.10;;;;;;5076689;28;20466;-62
2021/06/02 08:24:48;;;;;;;4.77;3.93;;;30.10;48.60;;;;;;5075361;28;20457;-64
2021/06/02 08:27:15;;;;;;;3.93;3.63;;;30.50;48.00;;;;;;5083599;28;20458;-62
2021/06/02 08:29:41;;;;;;;4.30;4.00;;;30.60;52.00;;;;;;5079970;28;20828;-62
2021/06/02 08:32:09;;;;;;;3.67;3.33;;;30.80;52.70;;;;;;5076328;28;20488;-62
2021/06/02 08:34:37;;;;;;;4.00;3.60;;;30.70;51.20;;;;;;5076572;28;20461;-62
2021/06/02 08:37:04;;;;;;;4.30;3.90;;;30.90;49.40;;;;;;5076832;28;20450;-62
2021/06/02 08:39:30;;;;;;;4.77;3.90;;;31.50;50.10;;;;;;5076433;28;20450;-62
2021/06/02 08:41:56;;;;;;;4.20;3.87;;;31.70;48.50;;;;;;5077127;28;20473;-62
2021/06/02 08:44:23;;;;;;;7.67;3.17;;;31.20;48.10;;;;;;5079322;28;20452;-62
2021/06/02 08:46:49;;;;;;;4.60;3.60;;;30.80;49.80;;;;;;5077093;28;20446;-62
2021/06/02 08:49:16;;;;;;;3.97;3.60;;;30.50;49.40;;;;;;5078454;28;20458;-62
2021/06/02 08:51:44;;;;;;;4.20;3.90;;;31.50;48.40;;;;;;5077764;28;20992;-62
2021/06/02 08:54:10;;;;;;;3.33;3.13;;;30.80;48.60;;;;;;5075538;28;20480;-63
2021/06/02 08:56:41;;;;;;;4.30;3.03;;;31.40;46.80;;;;;;5075789;28;20450;-63
2021/06/02 08:59:08;;;;;;;3.00;2.80;;;32.10;44.60;;;;;;5075428;28;20445;-63
2021/06/02 09:01:34;;;;;;;3.37;2.80;;;32.30;45.50;;;;;;5076509;28;20474;-62
2021/06/02 09:04:04;;;;;;;3.10;2.90;;;31.50;45.60;;;;;;5076430;28;20456;-62
2021/06/02 09:06:32;;;;;;;4.73;2.90;;;31.50;45.80;;;;;;5081919;28;20476;-63
2021/06/02 09:09:01;;;;;;;3.40;2.90;;;32.30;45.50;;;;;;5076707;28;20458;-62
2021/06/02 09:11:28;;;;;;;3.63;3.23;;;32.80;43.50;;;;;;5077983;28;20833;-62
2021/06/02 09:13:54;;;;;;;2.97;2.80;;;33.10;43.80;;;;;;5076035;28;20484;-62
2021/06/02 09:16:24;;;;;;;3.10;2.90;;;33.60;42.80;;;;;;5083922;28;20441;-63
2021/06/02 09:18:58;;;;;;;7.67;3.60;;;33.80;43.90;;;;;;5079259;28;20453;-62
2021/06/02 09:21:26;;;;;;;5.30;3.80;;;34.40;41.70;;;;;;5077762;28;20468;-63
2021/06/02 09:23:53;;;;;;;5.37;3.40;;;34.00;42.10;;;;;;5080973;28;20472;-62
2021/06/02 09:26:24;;;;;;;3.63;3.43;;;33.50;41.50;;;;;;5079693;28;20580;-63
2021/06/02 09:29:01;;;;;;;3.30;3.10;;;33.20;41.70;;;;;;5078189;28;20498;-63
2021/06/02 09:31:33;;;;;;;3.10;2.90;;;33.00;41.80;;;;;;5075627;28;20568;-63
2021/06/02 09:34:03;;;;;;;2.50;2.40;;;33.20;43.00;;;;;;5074978;28;20484;-62
2021/06/02 09:36:31;;;;;;;2.70;2.50;;;33.30;40.70;;;;;;5073745;28;20939;-62
2021/06/02 09:38:59;;;;;;;2.40;2.30;;;34.10;41.70;;;;;;5073413;28;21005;-63
2021/06/02 09:41:29;;;;;;;2.80;1.87;;;34.00;38.90;;;;;;5073580;28;20474;-63
2021/06/02 09:43:56;;;;;;;2.10;2.00;;;33.80;38.40;;;;;;5073740;28;20453;-63
2021/06/02 09:46:23;;;;;;;3.37;3.13;;;33.90;39.80;;;;;;5073463;28;20819;-63
2021/06/02 09:48:59;;;;;;;2.30;2.20;;;33.50;40.20;;;;;;5073561;28;20453;-63
2021/06/02 09:51:33;;;;;;;2.30;2.20;;;31.70;35.10;;;;;;5073484;28;20505;-63
2021/06/02 09:54:01;;;;;;;2.07;1.97;;;32.00;38.10;;;;;;5073525;28;20469;-63
2021/06/02 09:56:40;;;;;;;2.10;2.00;;;32.30;41.60;;;;;;5073488;28;20476;-63
2021/06/02 09:59:08;;;;;;;2.10;1.93;;;33.30;39.20;;;;;;5079696;28;20445;-63
2021/06/02 10:01:57;;;;;;;2.50;2.30;;;33.80;41.10;;;;;;5077868;28;20479;-63
2021/06/02 10:04:32;;;;;;;2.50;2.30;;;34.50;39.90;;;;;;5077540;28;20788;-63
2021/06/02 10:06:59;;;;;;;3.57;2.70;;;35.20;37.20;;;;;;5077061;28;21026;-63
2021/06/02 10:09:29;;;;;;;2.83;2.40;;;35.20;38.60;;;;;;5091648;28;20450;-63
2021/06/02 10:12:05;;;;;;;2.60;2.40;;;35.70;37.90;;;;;;5093608;28;20449;-63
2021/06/02 10:14:32;;;;;;;2.13;2.03;;;36.40;35.60;;;;;;5092838;28;20483;-63
2021/06/02 10:16:59;;;;;;;3.00;2.70;;;36.90;36.40;;;;;;5094954;28;20479;-63
2021/06/02 10:19:41;;;;;;;3.20;2.90;;;35.70;34.60;;;;;;5092435;28;20453;-63
2021/06/02 10:22:26;;;;;;;2.63;2.43;;;35.80;37.70;;;;;;5077619;28;20892;-66
2021/06/02 10:24:54;;;;;;;2.40;2.10;;;35.20;34.60;;;;;;5077717;28;20461;-63
2021/06/02 10:27:23;;;;;;;4.50;2.87;;;35.40;37.00;;;;;;5077364;28;20449;-63
2021/06/02 10:29:50;;;;;;;3.07;2.60;;;35.10;35.80;;;;;;5076866;28;20936;-65
2021/06/02 10:32:17;;;;;;;2.23;2.13;;;34.90;35.20;;;;;;5078740;28;21006;-63
2021/06/02 10:34:44;;;;;;;2.17;2.07;;;34.50;37.40;;;;;;5078489;28;20449;-63
2021/06/02 10:37:13;;;;;;;2.90;2.70;;;34.20;38.40;;;;;;5081638;28;20452;-65
2021/06/02 10:39:42;;;;;;;3.17;2.40;;;34.80;36.00;;;;;;5078491;28;20452;-65
2021/06/02 10:42:17;;;;;;;2.40;2.20;;;33.90;37.40;;;;;;5077449;28;20476;-64
2021/06/02 10:44:50;;;;;;;2.63;2.43;;;33.90;37.10;;;;;;5077298;28;20484;-64
2021/06/02 10:47:22;;;;;;;3.53;2.57;;;34.20;37.50;;;;;;5076871;28;20794;-64
2021/06/02 10:49:48;;;;;;;2.70;2.40;;;34.30;38.40;;;;;;5076413;28;20430;-62
2021/06/02 10:52:35;;;;;;;2.47;2.27;;;34.30;38.40;;;;;;5077297;28;20461;-62
2021/06/02 10:55:48;;;;;;;2.43;2.33;;;34.20;37.30;;;;;;5076764;28;20487;-62
2021/06/02 10:58:16;;;;;;;2.10;2.00;;;34.70;36.20;;;;;;5075744;28;20777;-61
2021/06/02 11:00:44;;;;;;;4.03;2.33;;;34.90;36.70;;;;;;5075976;28;20473;-64
2021/06/02 11:03:21;;;;;;;1.90;1.80;;;35.30;37.80;;;;;;5075872;28;20935;-62
2021/06/02 11:05:56;;;;;;;2.20;2.10;;;35.40;37.70;;;;;;5075608;28;20449;-63
2021/06/02 11:08:22;;;;;;;2.87;2.00;;;35.80;32.80;;;;;;5076122;28;20441;-65
2021/06/02 11:10:53;;;;;;;1.93;1.90;;;35.40;34.80;;;;;;5075568;28;20979;-66
2021/06/02 11:13:19;;;;;;;2.83;2.63;;;34.80;34.80;;;;;;5075492;28;20474;-66
2021/06/02 11:15:48;;;;;;;2.30;2.20;;;34.80;34.40;;;;;;5075844;28;20456;-66
2021/06/02 11:18:20;;;;;;;2.53;2.43;;;34.40;36.60;;;;;;5075791;28;20460;-65
2021/06/02 11:20:49;;;;;;;2.83;2.23;;;34.40;37.90;;;;;;5075562;28;20470;-66
2021/06/02 11:23:18;;;;;;;6.53;2.50;;;34.30;38.00;;;;;;5075367;28;20944;-66
2021/06/02 11:25:45;;;;;;;2.43;2.30;;;34.00;37.10;;;;;;5075316;28;20809;-66
2021/06/02 11:28:42;;;;;;;2.70;2.53;;;33.70;38.60;;;;;;5079597;28;20456;-66
2021/06/02 11:31:24;;;;;;;2.70;2.50;;;33.20;39.30;;;;;;5080216;28;20469;-66
2021/06/02 11:33:51;;;;;;;2.60;2.40;;;32.80;39.90;;;;;;5075866;28;20480;-66
2021/06/02 11:36:18;;;;;;;2.40;2.20;;;32.60;41.20;;;;;;5075348;28;20451;-66
2021/06/02 11:38:45;;;;;;;7.87;2.57;;;32.30;39.90;;;;;;5075396;28;20786;-65
2021/06/02 11:41:12;;;;;;;2.10;2.00;;;31.80;42.40;;;;;;5075549;28;20470;-66
2021/06/02 11:43:39;;;;;;;2.50;2.30;;;31.50;40.10;;;;;;5074912;28;20453;-66
2021/06/02 11:46:06;;;;;;;3.13;2.60;;;31.10;41.10;;;;;;5075187;28;20457;-66
2021/06/02 11:48:36;;;;;;;2.60;2.30;;;31.10;42.00;;;;;;5075189;28;20454;-66
2021/06/02 11:51:10;;;;;;;2.30;2.03;;;30.70;40.40;;;;;;5075104;28;20474;-66
2021/06/02 11:53:44;;;;;;;2.50;2.10;;;30.60;40.50;;;;;;5074778;28;20462;-66
2021/06/02 11:56:11;;;;;;;3.27;2.33;;;30.50;41.10;;;;;;5075044;28;20536;-66
2021/06/02 11:58:38;;;;;;;2.30;2.20;;;30.60;42.20;;;;;;5074777;28;20571;-66
2021/06/02 12:01:04;;;;;;;2.70;2.30;;;30.30;38.90;;;;;;5074576;28;20470;-66
2021/06/02 12:03:31;;;;;;;2.87;2.67;;;30.30;41.00;;;;;;5074858;28;20453;-66
2021/06/02 12:05:59;;;;;;;2.57;2.47;;;30.60;44.10;;;;;;5074768;28;20454;-66
2021/06/02 12:08:26;;;;;;;2.60;2.40;;;30.80;40.70;;;;;;5074650;28;20446;-65
2021/06/02 12:10:55;;;;;;;1.90;1.87;;;30.70;42.30;;;;;;5074549;28;20596;-66
2021/06/02 12:13:23;;;;;;;2.37;2.27;;;30.60;39.80;;;;;;5074200;28;20478;-66
2021/06/02 12:15:54;;;;;;;2.33;2.13;;;30.40;45.00;;;;;;5074083;28;21003;-66
2021/06/02 12:18:35;;;;;;;3.10;2.47;;;30.50;43.60;;;;;;5074212;28;20435;-66
2021/06/02 12:21:12;;;;;;;2.30;2.20;;;30.50;43.20;;;;;;5074075;28;20860;-65
2021/06/02 12:23:57;;;;;;;6.70;2.43;;;30.70;44.30;;;;;;5073640;28;20484;-66
2021/06/02 12:26:27;;;;;;;4.17;2.10;;;30.80;42.50;;;;;;5074381;28;20496;-65
2021/06/02 12:28:55;;;;;;;2.97;2.50;;;30.90;41.20;;;;;;5073971;28;20450;-65
2021/06/02 12:31:38;;;;;;;2.33;2.17;;;31.10;45.30;;;;;;5074292;28;20493;-64
2021/06/02 12:34:11;;;;;;;4.03;2.17;;;31.20;40.80;;;;;;5074096;28;20968;-65
2021/06/02 12:36:42;;;;;;;2.83;2.47;;;31.20;41.60;;;;;;5074506;28;20502;-66
2021/06/02 12:39:10;;;;;;;3.23;2.20;;;31.10;37.10;;;;;;5074184;28;20434;-66
2021/06/02 12:41:37;;;;;;;1.93;1.83;;;30.90;42.40;;;;;;5073943;28;20477;-65
2021/06/02 12:44:05;;;;;;;2.23;2.00;;;31.10;38.90;;;;;;5074910;28;20482;-65
2021/06/02 12:46:32;;;;;;;2.70;2.60;;;31.00;37.90;;;;;;5074046;28;20482;-65
2021/06/02 12:48:58;;;;;;;1.97;1.87;;;31.10;40.30;;;;;;5074887;28;20450;-65
2021/06/02 12:51:27;;;;;;;2.73;2.60;;;30.90;42.20;;;;;;5073664;28;20980;-65
2021/06/02 12:53:54;;;;;;;1.90;1.80;;;31.10;43.10;;;;;;5073405;28;20865;-65
2021/06/02 12:56:21;;;;;;;2.40;2.03;;;31.40;39.70;;;;;;5073917;28;20461;-65
2021/06/02 12:58:52;;;;;;;2.10;1.90;;;31.50;40.60;;;;;;5073888;28;20453;-65
2021/06/02 13:01:19;;;;;;;2.03;1.90;;;31.30;38.00;;;;;;5076025;28;20466;-65
2021/06/02 13:03:47;;;;;;;2.57;2.10;;;31.10;36.00;;;;;;5075766;28;20450;-65
2021/06/02 13:06:16;;;;;;;2.33;2.23;;;31.00;38.10;;;;;;5073938;28;20457;-65
2021/06/02 13:08:42;;;;;;;2.70;2.30;;;30.60;39.10;;;;;;5073821;28;20442;-65
2021/06/02 13:11:11;;;;;;;2.20;2.03;;;30.70;39.50;;;;;;5073901;28;20549;-65
2021/06/02 13:13:39;;;;;;;2.30;2.20;;;30.60;42.10;;;;;;5073587;28;20485;-65
2021/06/02 13:16:06;;;;;;;2.53;1.83;;;30.30;42.60;;;;;;5073914;28;20499;-65
2021/06/02 13:18:33;;;;;;;3.80;2.10;;;30.40;43.40;;;;;;5073760;28;20454;-65
2021/06/02 13:21:11;;;;;;;2.30;1.93;;;30.50;41.30;;;;;;5074008;28;20478;-65
2021/06/02 13:23:40;;;;;;;2.17;1.97;;;30.60;38.90;;;;;;5074118;28;20874;-65
2021/06/02 13:26:09;;;;;;;2.13;2.00;;;30.40;39.90;;;;;;5074118;28;20480;-64
2021/06/02 13:28:42;;;;;;;4.30;2.30;;;30.30;40.40;;;;;;5073604;28;20967;-65
2021/06/02 13:31:10;;;;;;;3.40;2.20;;;30.40;44.60;;;;;;5074862;28;20502;-66
2021/06/02 13:33:38;;;;;;;2.10;1.97;;;30.60;41.30;;;;;;5076783;28;20470;-67
2021/06/02 13:36:07;;;;;;;2.37;2.20;;;30.80;41.10;;;;;;5078586;28;20453;-65
2021/06/02 13:38:33;;;;;;;1.87;1.77;;;30.90;40.50;;;;;;5078509;28;20461;-65
2021/06/02 13:40:59;;;;;;;2.20;2.10;;;30.90;37.80;;;;;;5078109;28;20532;-65
2021/06/02 13:43:27;;;;;;;2.23;2.13;;;30.70;39.90;;;;;;5077543;28;20454;-65
2021/06/02 13:45:55;;;;;;;5.00;2.00;;;30.50;38.80;;;;;;5077516;28;20462;-63
2021/06/02 13:48:30;;;;;;;1.77;1.73;;;30.30;39.40;;;;;;5077498;28;20478;-63
2021/06/02 13:51:29;;;;;;;2.27;2.07;;;30.00;42.60;;;;;;5077540;28;20537;-63
2021/06/02 13:54:16;;;;;;;3.10;2.30;;;30.30;42.40;;;;;;5077125;28;20462;-64
2021/06/02 13:56:51;;;;;;;2.27;1.90;;;30.20;40.40;;;;;;5077377;28;20434;-64
2021/06/02 13:59:20;;;;;;;2.40;2.30;;;30.50;42.50;;;;;;5078200;28;20520;-64
2021/06/02 14:01:47;;;;;;;2.07;1.97;;;30.70;41.10;;;;;;5077284;28;20470;-64
2021/06/02 14:04:16;;;;;;;4.80;2.43;;;30.90;41.50;;;;;;5078167;28;20795;-64
2021/06/02 14:06:43;;;;;;;2.50;2.40;;;31.20;42.50;;;;;;5077278;28;20446;-64
2021/06/02 14:09:10;;;;;;;2.47;2.30;;;31.00;42.60;;;;;;5077169;28;20461;-64
2021/06/02 14:11:37;;;;;;;1.57;1.57;;;31.10;43.00;;;;;;5077175;28;20477;-63
2021/06/02 14:14:03;;;;;;;3.27;2.10;;;31.40;42.50;;;;;;5076642;28;20481;-64
2021/06/02 14:16:31;;;;;;;1.97;1.87;;;31.40;42.20;;;;;;5076812;28;20458;-63
2021/06/02 14:18:58;;;;;;;1.97;1.87;;;31.50;40.40;;;;;;5076940;28;20458;-63
2021/06/02 14:21:25;;;;;;;2.37;1.87;;;31.40;40.70;;;;;;5076728;28;20469;-63
2021/06/02 14:23:52;;;;;;;2.20;2.00;;;31.40;41.20;;;;;;5076939;28;20450;-64
2021/06/02 14:26:20;;;;;;;3.07;2.43;;;31.00;40.60;;;;;;5076729;28;20453;-63
2021/06/02 14:28:46;;;;;;;2.37;2.17;;;31.10;42.90;;;;;;5076762;28;20462;-64
2021/06/02 14:31:13;;;;;;;2.17;1.87;;;31.00;40.50;;;;;;5076918;28;20476;-64
2021/06/02 14:33:41;;;;;;;1.83;1.73;;;31.10;43.40;;;;;;5078441;28;20474;-65
2021/06/02 14:36:08;;;;;;;3.33;2.27;;;31.00;42.30;;;;;;5078306;28;20450;-66
2021/06/02 14:38:35;;;;;;;2.73;2.53;;;30.40;41.90;;;;;;5076630;28;20477;-66
2021/06/02 14:41:02;;;;;;;2.50;2.03;;;30.40;43.50;;;;;;5076512;28;20470;-66
2021/06/02 14:43:29;;;;;;;4.93;2.37;;;30.30;42.90;;;;;;5076607;28;20845;-66
2021/06/02 14:45:55;;;;;;;2.30;2.10;;;30.30;43.00;;;;;;5077739;28;20454;-66
2021/06/02 14:48:22;;;;;;;2.80;2.03;;;30.40;42.70;;;;;;5077894;28;20446;-66
2021/06/02 14:50:50;;;;;;;2.00;1.90;;;30.40;44.50;;;;;;5076647;28;20478;-66
2021/06/02 14:53:16;;;;;;;2.13;2.03;;;30.50;42.50;;;;;;5077385;28;20813;-66
2021/06/02 14:55:42;;;;;;;2.30;2.20;;;30.50;42.10;;;;;;5076423;28;20450;-66
2021/06/02 14:58:09;;;;;;;1.90;1.90;;;30.40;43.50;;;;;;5076151;28;20450;-66
2021/06/02 15:00:35;;;;;;;2.33;2.07;;;30.50;43.30;;;;;;5076377;28;20450;-66
2021/06/02 15:03:03;;;;;;;1.90;1.90;;;30.50;42.20;;;;;;5076136;28;20475;-66
2021/06/02 15:05:30;;;;;;;2.13;2.03;;;30.60;43.50;;;;;;5076214;28;20450;-66
2021/06/02 15:07:58;;;;;;;2.07;1.80;;;30.50;42.10;;;;;;5075830;28;20957;-65
2021/06/02 15:10:24;;;;;;;2.23;2.13;;;30.60;41.00;;;;;;5075935;28;20430;-66
2021/06/02 15:12:51;;;;;;;1.80;1.70;;;30.60;42.00;;;;;;5075647;28;20458;-66
2021/06/02 15:15:18;;;;;;;4.00;2.10;;;30.80;42.90;;;;;;5075933;28;20591;-66
2021/06/02 15:17:45;;;;;;;2.60;2.50;;;30.90;42.40;;;;;;5075918;28;20454;-66
2021/06/02 15:20:12;;;;;;;2.40;2.00;;;31.00;42.10;;;;;;5075630;28;20938;-66
2021/06/02 15:22:39;;;;;;;2.07;2.00;;;30.90;40.70;;;;;;5076342;28;20509;-66
2021/06/02 15:25:07;;;;;;;2.17;1.97;;;31.00;40.10;;;;;;5075695;28;20446;-66
2021/06/02 15:27:34;;;;;;;4.27;2.00;;;30.80;40.40;;;;;;5076419;28;20454;-66
2021/06/02 15:30:01;;;;;;;2.00;1.90;;;30.60;41.10;;;;;;5078136;28;20450;-64
2021/06/02 15:32:29;;;;;;;3.07;1.90;;;30.60;42.10;;;;;;5077792;28;20466;-66
2021/06/02 15:34:58;;;;;;;2.00;1.90;;;30.30;42.10;;;;;;5075898;28;20549;-66
2021/06/02 15:37:29;;;;;;;2.10;2.00;;;30.10;41.70;;;;;;5075884;28;20503;-66
2021/06/02 15:39:56;;;;;;;2.67;2.43;;;30.00;43.00;;;;;;5075632;28;20445;-66
2021/06/02 15:42:24;;;;;;;2.00;1.73;;;30.00;42.90;;;;;;5075223;28;20985;-66
2021/06/02 15:44:51;;;;;;;2.20;2.13;;;30.10;40.90;;;;;;5076986;28;21011;-66
2021/06/02 15:47:17;;;;;;;2.23;2.13;;;30.10;41.00;;;;;;5077765;28;20494;-66
2021/06/02 15:49:44;;;;;;;2.50;2.40;;;30.10;42.40;;;;;;5077397;28;20821;-65
2021/06/02 15:52:12;;;;;;;1.97;1.87;;;30.10;41.60;;;;;;5077108;28;20877;-65
2021/06/02 15:54:39;;;;;;;3.93;3.60;;;30.10;42.10;;;;;;5075344;28;20474;-65
2021/06/02 15:57:07;;;;;;;2.77;2.57;;;30.10;41.40;;;;;;5074497;28;20454;-66
2021/06/02 15:59:36;;;;;;;2.40;2.20;;;30.10;42.90;;;;;;5075565;28;20454;-65
2021/06/02 16:02:03;;;;;;;3.33;2.53;;;30.10;42.40;;;;;;5075620;28;20492;-65
2021/06/02 16:04:30;;;;;;;2.13;2.03;;;30.10;42.60;;;;;;5075482;28;20852;-65
2021/06/02 16:06:56;;;;;;;2.27;2.00;;;30.00;42.70;;;;;;5077426;28;20454;-66
2021/06/02 16:09:22;;;;;;;2.33;2.13;;;30.00;42.30;;;;;;5078507;28;20964;-65
2021/06/02 16:11:48;;;;;;;2.23;1.90;;;30.00;42.10;;;;;;5074899;28;20469;-65
2021/06/02 16:14:15;;;;;;;1.90;1.80;;;29.90;42.50;;;;;;5075241;28;20466;-66
2021/06/02 16:16:42;;;;;;;2.10;1.90;;;29.70;42.90;;;;;;5075046;28;20791;-65
2021/06/02 16:19:08;;;;;;;2.13;1.93;;;29.70;43.10;;;;;;5074835;28;20786;-65
2021/06/02 16:21:35;;;;;;;2.13;1.90;;;29.60;43.10;;;;;;5074838;28;20462;-65
2021/06/02 16:24:01;;;;;;;2.53;2.33;;;29.60;43.60;;;;;;5074791;28;20477;-65
2021/06/02 16:26:28;;;;;;;4.10;2.90;;;29.60;42.10;;;;;;5074907;28;20454;-65
2021/06/02 16:28:55;;;;;;;4.00;1.93;;;29.50;40.90;;;;;;5074714;28;20454;-65
2021/06/02 16:31:25;;;;;;;3.70;2.27;;;29.50;41.80;;;;;;5075263;28;20528;-65
2021/06/02 16:33:55;;;;;;;2.80;2.30;;;29.10;42.60;;;;;;5077525;28;20454;-64
2021/06/02 16:36:22;;;;;;;2.13;2.00;;;29.20;42.30;;;;;;5076731;28;20453;-64
2021/06/02 16:38:49;;;;;;;2.40;2.30;;;29.10;43.30;;;;;;5075374;28;20450;-64
2021/06/02 16:41:18;;;;;;;2.20;2.10;;;28.90;43.00;;;;;;5074071;28;20477;-64
2021/06/02 16:43:44;;;;;;;2.37;2.23;;;28.90;42.40;;;;;;5074454;28;20446;-64
2021/06/02 16:46:10;;;;;;;2.40;2.20;;;28.90;42.20;;;;;;5075123;28;20454;-64
2021/06/02 16:48:37;;;;;;;2.00;1.90;;;28.90;43.10;;;;;;5074597;28;20932;-64
2021/06/02 16:51:05;;;;;;;2.87;2.33;;;28.90;42.70;;;;;;5074993;28;20655;-64
2021/06/02 16:53:34;;;;;;;1.97;1.87;;;28.80;44.20;;;;;;5074974;28;20481;-64
2021/06/02 16:56:01;;;;;;;2.83;2.63;;;28.70;43.60;;;;;;5075447;28;20464;-65
2021/06/02 16:58:28;;;;;;;1.80;1.70;;;28.70;43.70;;;;;;5075106;28;20450;-64
2021/06/02 17:00:55;;;;;;;2.50;2.20;;;28.60;43.20;;;;;;5074727;28;20556;-65
2021/06/02 17:03:22;;;;;;;3.07;2.40;;;28.40;43.80;;;;;;5074793;28;20936;-65
2021/06/02 17:05:48;;;;;;;1.97;1.87;;;28.40;43.40;;;;;;5074761;28;20967;-65
2021/06/02 17:08:16;;;;;;;2.83;2.60;;;28.40;43.60;;;;;;5074820;28;20454;-65
2021/06/02 17:10:43;;;;;;;2.10;2.00;;;28.30;43.20;;;;;;5075545;28;20524;-65
2021/06/02 17:13:10;;;;;;;2.23;1.90;;;28.30;44.30;;;;;;5074228;28;20892;-65
2021/06/02 17:15:36;;;;;;;2.07;1.87;;;28.20;44.50;;;;;;5074322;28;20816;-65
2021/06/02 17:18:04;;;;;;;2.57;2.10;;;28.10;45.60;;;;;;5074490;28;20453;-65